sensor_id;sensor_type;location;lat;lon;timestamp;P1;durP1;ratioP1;P2;durP2;ratioP2
16969;SDS011;8601;48.718;8.992;2022-11-27T00:00:54;107.70;;;18.97;;
16969;SDS011;8601;48.718;8.992;2022-11-27T00:03:21;74.43;;;18.50;;
16969;SDS011;8601;48.718;8.992;2022-11-27T00:05:52;60.03;;;16.93;;
16969;SDS011;8601;48.718;8.992;2022-11-27T00:08:21;71.30;;;16.07;;
16969;SDS011;8601;48.718;8.992;2022-11-27T00:10:49;39.97;;;14.40;;
16969;SDS011;8601;48.718;8.992;2022-11-27T00:13:16;27.57;;;14.07;;
16969;SDS011;8601;48.718;8.992;2022-11-27T00:15:43;45.17;;;14.50;;
16969;SDS011;8601;48.718;8.992;2022-11-27T00:18:10;26.10;;;13.10;;
16969;SDS011;8601;48.718;8.992;2022-11-27T00:20:37;25.33;;;12.23;;
16969;SDS011;8601;48.718;8.992;2022-11-27T00:23:04;29.00;;;13.07;;
16969;SDS011;8601;48.718;8.992;2022-11-27T00:25:33;66.37;;;14.23;;
16969;SDS011;8601;48.718;8.992;2022-11-27T00:28:00;61.10;;;14.10;;
16969;SDS011;8601;48.718;8.992;2022-11-27T00:30:27;88.57;;;15.73;;
16969;SDS011;8601;48.718;8.992;2022-11-27T00:32:53;87.47;;;14.00;;
16969;SDS011;8601;48.718;8.992;2022-11-27T00:35:20;64.70;;;13.60;;
16969;SDS011;8601;48.718;8.992;2022-11-27T00:37:47;36.07;;;12.27;;
16969;SDS011;8601;48.718;8.992;2022-11-27T00:40:14;42.63;;;11.47;;
16969;SDS011;8601;48.718;8.992;2022-11-27T00:42:43;84.53;;;13.00;;
16969;SDS011;8601;48.718;8.992;2022-11-27T00:45:10;49.57;;;12.00;;
16969;SDS011;8601;48.718;8.992;2022-11-27T00:47:37;61.37;;;12.60;;
16969;SDS011;8601;48.718;8.992;2022-11-27T00:50:04;44.83;;;11.53;;
16969;SDS011;8601;48.718;8.992;2022-11-27T00:52:32;22.60;;;9.83;;
16969;SDS011;8601;48.718;8.992;2022-11-27T00:55:00;75.30;;;11.93;;
16969;SDS011;8601;48.718;8.992;2022-11-27T00:57:27;15.93;;;10.13;;
16969;SDS011;8601;48.718;8.992;2022-11-27T00:59:56;43.33;;;12.47;;
16969;SDS011;8601;48.718;8.992;2022-11-27T01:02:23;79.23;;;12.20;;
16969;SDS011;8601;48.718;8.992;2022-11-27T01:04:50;61.93;;;12.40;;
16969;SDS011;8601;48.718;8.992;2022-11-27T01:07:17;35.03;;;10.53;;
16969;SDS011;8601;48.718;8.992;2022-11-27T01:09:44;47.80;;;11.93;;
16969;SDS011;8601;48.718;8.992;2022-11-27T01:12:11;27.07;;;10.67;;
16969;SDS011;8601;48.718;8.992;2022-11-27T01:14:37;34.67;;;11.20;;
16969;SDS011;8601;48.718;8.992;2022-11-27T01:17:06;15.03;;;10.13;;
16969;SDS011;8601;48.718;8.992;2022-11-27T01:19:32;55.40;;;12.93;;
16969;SDS011;8601;48.718;8.992;2022-11-27T01:21:59;134.13;;;16.03;;
16969;SDS011;8601;48.718;8.992;2022-11-27T01:24:26;42.80;;;11.80;;
16969;SDS011;8601;48.718;8.992;2022-11-27T01:26:55;62.03;;;12.23;;
16969;SDS011;8601;48.718;8.992;2022-11-27T01:29:22;166.30;;;17.53;;
16969;SDS011;8601;48.718;8.992;2022-11-27T01:31:49;133.00;;;15.83;;
16969;SDS011;8601;48.718;8.992;2022-11-27T01:34:17;63.80;;;12.47;;
16969;SDS011;8601;48.718;8.992;2022-11-27T01:36:44;64.47;;;13.23;;
16969;SDS011;8601;48.718;8.992;2022-11-27T01:39:13;98.77;;;14.57;;
16969;SDS011;8601;48.718;8.992;2022-11-27T01:41:41;209.00;;;21.17;;
16969;SDS011;8601;48.718;8.992;2022-11-27T01:47:22;20.50;;;10.43;;
16969;SDS011;8601;48.718;8.992;2022-11-27T01:50:14;48.87;;;11.80;;
16969;SDS011;8601;48.718;8.992;2022-11-27T01:52:50;117.07;;;15.47;;
16969;SDS011;8601;48.718;8.992;2022-11-27T01:55:21;65.97;;;12.90;;
16969;SDS011;8601;48.718;8.992;2022-11-27T01:57:54;104.03;;;15.03;;
16969;SDS011;8601;48.718;8.992;2022-11-27T02:00:24;85.33;;;15.43;;
16969;SDS011;8601;48.718;8.992;2022-11-27T02:02:51;73.07;;;12.37;;
16969;SDS011;8601;48.718;8.992;2022-11-27T02:05:20;146.53;;;14.90;;
16969;SDS011;8601;48.718;8.992;2022-11-27T02:07:52;78.10;;;13.50;;
16969;SDS011;8601;48.718;8.992;2022-11-27T02:10:21;100.13;;;14.23;;
16969;SDS011;8601;48.718;8.992;2022-11-27T02:12:54;35.87;;;11.33;;
16969;SDS011;8601;48.718;8.992;2022-11-27T02:15:25;89.90;;;15.23;;
16969;SDS011;8601;48.718;8.992;2022-11-27T02:18:00;93.93;;;14.07;;
16969;SDS011;8601;48.718;8.992;2022-11-27T02:20:38;143.77;;;16.23;;
16969;SDS011;8601;48.718;8.992;2022-11-27T02:26:19;55.60;;;10.87;;
16969;SDS011;8601;48.718;8.992;2022-11-27T02:29:11;39.97;;;10.20;;
16969;SDS011;8601;48.718;8.992;2022-11-27T02:31:39;54.03;;;11.53;;
16969;SDS011;8601;48.718;8.992;2022-11-27T02:34:16;50.63;;;12.67;;
16969;SDS011;8601;48.718;8.992;2022-11-27T02:36:52;37.23;;;11.40;;
16969;SDS011;8601;48.718;8.992;2022-11-27T02:39:24;32.90;;;10.30;;
16969;SDS011;8601;48.718;8.992;2022-11-27T02:41:56;34.90;;;11.50;;
16969;SDS011;8601;48.718;8.992;2022-11-27T02:44:29;40.53;;;11.17;;
16969;SDS011;8601;48.718;8.992;2022-11-27T02:46:58;40.67;;;11.13;;
16969;SDS011;8601;48.718;8.992;2022-11-27T02:49:26;24.07;;;9.93;;
16969;SDS011;8601;48.718;8.992;2022-11-27T02:51:55;29.67;;;10.13;;
16969;SDS011;8601;48.718;8.992;2022-11-27T02:54:25;69.37;;;13.03;;
16969;SDS011;8601;48.718;8.992;2022-11-27T02:56:55;23.13;;;10.30;;
16969;SDS011;8601;48.718;8.992;2022-11-27T02:59:25;22.40;;;10.23;;
16969;SDS011;8601;48.718;8.992;2022-11-27T03:02:00;24.27;;;9.27;;
16969;SDS011;8601;48.718;8.992;2022-11-27T03:04:32;14.23;;;10.07;;
16969;SDS011;8601;48.718;8.992;2022-11-27T03:07:05;11.60;;;9.13;;
16969;SDS011;8601;48.718;8.992;2022-11-27T03:09:36;14.77;;;9.53;;
16969;SDS011;8601;48.718;8.992;2022-11-27T03:12:07;27.20;;;9.80;;
16969;SDS011;8601;48.718;8.992;2022-11-27T03:14:36;13.10;;;9.07;;
16969;SDS011;8601;48.718;8.992;2022-11-27T03:17:07;12.40;;;9.53;;
16969;SDS011;8601;48.718;8.992;2022-11-27T03:19:42;17.63;;;10.50;;
16969;SDS011;8601;48.718;8.992;2022-11-27T03:22:14;61.07;;;11.37;;
16969;SDS011;8601;48.718;8.992;2022-11-27T03:24:48;16.40;;;9.07;;
16969;SDS011;8601;48.718;8.992;2022-11-27T03:27:16;38.77;;;11.20;;
16969;SDS011;8601;48.718;8.992;2022-11-27T03:29:48;27.70;;;9.40;;
16969;SDS011;8601;48.718;8.992;2022-11-27T03:32:19;30.40;;;10.90;;
16969;SDS011;8601;48.718;8.992;2022-11-27T03:34:47;25.13;;;11.23;;
16969;SDS011;8601;48.718;8.992;2022-11-27T03:37:14;13.80;;;10.33;;
16969;SDS011;8601;48.718;8.992;2022-11-27T03:39:42;19.07;;;9.60;;
16969;SDS011;8601;48.718;8.992;2022-11-27T03:42:11;10.60;;;9.50;;
16969;SDS011;8601;48.718;8.992;2022-11-27T03:44:45;41.67;;;11.57;;
16969;SDS011;8601;48.718;8.992;2022-11-27T03:47:23;20.33;;;10.10;;
16969;SDS011;8601;48.718;8.992;2022-11-27T03:50:04;16.87;;;9.80;;
16969;SDS011;8601;48.718;8.992;2022-11-27T03:52:42;9.40;;;8.37;;
16969;SDS011;8601;48.718;8.992;2022-11-27T03:55:16;9.57;;;8.20;;
16969;SDS011;8601;48.718;8.992;2022-11-27T03:57:54;8.97;;;8.07;;
16969;SDS011;8601;48.718;8.992;2022-11-27T04:00:24;8.50;;;7.60;;
16969;SDS011;8601;48.718;8.992;2022-11-27T04:02:56;8.13;;;7.33;;
16969;SDS011;8601;48.718;8.992;2022-11-27T04:05:23;9.17;;;8.27;;
16969;SDS011;8601;48.718;8.992;2022-11-27T04:07:50;7.87;;;7.07;;
16969;SDS011;8601;48.718;8.992;2022-11-27T04:10:17;9.27;;;8.33;;
16969;SDS011;8601;48.718;8.992;2022-11-27T04:12:44;10.07;;;7.23;;
16969;SDS011;8601;48.718;8.992;2022-11-27T04:15:12;9.17;;;7.67;;
16969;SDS011;8601;48.718;8.992;2022-11-27T04:17:39;8.13;;;7.33;;
16969;SDS011;8601;48.718;8.992;2022-11-27T04:20:08;8.47;;;7.67;;
16969;SDS011;8601;48.718;8.992;2022-11-27T04:22:38;8.33;;;7.53;;
16969;SDS011;8601;48.718;8.992;2022-11-27T04:25:06;7.77;;;6.97;;
16969;SDS011;8601;48.718;8.992;2022-11-27T04:27:33;8.67;;;7.77;;
16969;SDS011;8601;48.718;8.992;2022-11-27T04:30:00;8.23;;;7.43;;
16969;SDS011;8601;48.718;8.992;2022-11-27T04:32:27;7.67;;;6.97;;
16969;SDS011;8601;48.718;8.992;2022-11-27T04:34:54;8.17;;;7.37;;
16969;SDS011;8601;48.718;8.992;2022-11-27T04:37:22;8.40;;;7.43;;
16969;SDS011;8601;48.718;8.992;2022-11-27T04:39:50;8.83;;;7.93;;
16969;SDS011;8601;48.718;8.992;2022-11-27T04:42:17;9.47;;;7.70;;
16969;SDS011;8601;48.718;8.992;2022-11-27T04:44:44;9.07;;;8.17;;
16969;SDS011;8601;48.718;8.992;2022-11-27T04:50:33;8.17;;;7.03;;
16969;SDS011;8601;48.718;8.992;2022-11-27T04:53:01;8.27;;;7.47;;
16969;SDS011;8601;48.718;8.992;2022-11-27T04:58:09;9.67;;;8.00;;
16969;SDS011;8601;48.718;8.992;2022-11-27T05:00:36;9.10;;;8.20;;
16969;SDS011;8601;48.718;8.992;2022-11-27T05:03:10;8.83;;;7.20;;
16969;SDS011;8601;48.718;8.992;2022-11-27T05:05:37;8.53;;;7.43;;
16969;SDS011;8601;48.718;8.992;2022-11-27T05:08:05;11.23;;;7.97;;
16969;SDS011;8601;48.718;8.992;2022-11-27T05:10:33;9.40;;;7.07;;
16969;SDS011;8601;48.718;8.992;2022-11-27T05:13:00;8.57;;;7.77;;
16969;SDS011;8601;48.718;8.992;2022-11-27T05:15:27;12.47;;;8.00;;
16969;SDS011;8601;48.718;8.992;2022-11-27T05:17:54;9.33;;;7.57;;
16969;SDS011;8601;48.718;8.992;2022-11-27T05:20:21;8.70;;;7.80;;
16969;SDS011;8601;48.718;8.992;2022-11-27T05:22:48;8.93;;;7.97;;
16969;SDS011;8601;48.718;8.992;2022-11-27T05:25:16;9.17;;;8.27;;
16969;SDS011;8601;48.718;8.992;2022-11-27T05:27:43;9.20;;;8.23;;
16969;SDS011;8601;48.718;8.992;2022-11-27T05:30:10;9.93;;;8.93;;
16969;SDS011;8601;48.718;8.992;2022-11-27T05:32:37;9.67;;;8.67;;
16969;SDS011;8601;48.718;8.992;2022-11-27T05:35:04;9.00;;;8.10;;
16969;SDS011;8601;48.718;8.992;2022-11-27T05:37:31;8.07;;;7.27;;
16969;SDS011;8601;48.718;8.992;2022-11-27T05:39:58;8.20;;;7.27;;
16969;SDS011;8601;48.718;8.992;2022-11-27T05:42:26;8.40;;;7.60;;
16969;SDS011;8601;48.718;8.992;2022-11-27T05:44:55;8.10;;;7.30;;
16969;SDS011;8601;48.718;8.992;2022-11-27T05:47:22;8.23;;;7.43;;
16969;SDS011;8601;48.718;8.992;2022-11-27T05:49:50;8.27;;;7.37;;
16969;SDS011;8601;48.718;8.992;2022-11-27T05:52:17;7.40;;;6.70;;
16969;SDS011;8601;48.718;8.992;2022-11-27T05:54:50;7.50;;;6.80;;
16969;SDS011;8601;48.718;8.992;2022-11-27T05:57:19;8.07;;;7.27;;
16969;SDS011;8601;48.718;8.992;2022-11-27T05:59:47;7.93;;;7.23;;
16969;SDS011;8601;48.718;8.992;2022-11-27T06:02:15;9.17;;;8.00;;
16969;SDS011;8601;48.718;8.992;2022-11-27T06:04:42;8.50;;;7.60;;
16969;SDS011;8601;48.718;8.992;2022-11-27T06:07:09;7.83;;;6.97;;
16969;SDS011;8601;48.718;8.992;2022-11-27T06:09:37;9.70;;;8.70;;
16969;SDS011;8601;48.718;8.992;2022-11-27T06:12:04;10.47;;;8.10;;
16969;SDS011;8601;48.718;8.992;2022-11-27T06:14:31;8.83;;;7.77;;
16969;SDS011;8601;48.718;8.992;2022-11-27T06:17:00;8.87;;;7.97;;
16969;SDS011;8601;48.718;8.992;2022-11-27T06:19:27;8.83;;;8.03;;
16969;SDS011;8601;48.718;8.992;2022-11-27T06:21:55;9.70;;;8.80;;
16969;SDS011;8601;48.718;8.992;2022-11-27T06:24:22;8.67;;;7.50;;
16969;SDS011;8601;48.718;8.992;2022-11-27T06:26:49;8.40;;;7.60;;
16969;SDS011;8601;48.718;8.992;2022-11-27T06:29:17;8.77;;;7.87;;
16969;SDS011;8601;48.718;8.992;2022-11-27T06:31:44;8.70;;;6.80;;
16969;SDS011;8601;48.718;8.992;2022-11-27T06:34:12;8.00;;;7.20;;
16969;SDS011;8601;48.718;8.992;2022-11-27T06:36:39;8.37;;;7.00;;
16969;SDS011;8601;48.718;8.992;2022-11-27T06:39:06;10.10;;;8.30;;
16969;SDS011;8601;48.718;8.992;2022-11-27T06:41:35;9.00;;;8.10;;
16969;SDS011;8601;48.718;8.992;2022-11-27T06:44:05;9.27;;;8.27;;
16969;SDS011;8601;48.718;8.992;2022-11-27T06:46:31;9.53;;;8.13;;
16969;SDS011;8601;48.718;8.992;2022-11-27T06:48:59;9.70;;;8.47;;
16969;SDS011;8601;48.718;8.992;2022-11-27T06:51:28;8.77;;;7.87;;
16969;SDS011;8601;48.718;8.992;2022-11-27T06:53:56;9.03;;;8.03;;
16969;SDS011;8601;48.718;8.992;2022-11-27T06:56:25;10.47;;;9.03;;
16969;SDS011;8601;48.718;8.992;2022-11-27T06:58:54;9.53;;;8.53;;
16969;SDS011;8601;48.718;8.992;2022-11-27T07:01:24;9.87;;;8.87;;
16969;SDS011;8601;48.718;8.992;2022-11-27T07:03:52;9.83;;;8.10;;
16969;SDS011;8601;48.718;8.992;2022-11-27T07:06:22;8.70;;;7.80;;
16969;SDS011;8601;48.718;8.992;2022-11-27T07:08:51;10.83;;;8.33;;
16969;SDS011;8601;48.718;8.992;2022-11-27T07:11:19;8.63;;;7.63;;
16969;SDS011;8601;48.718;8.992;2022-11-27T07:13:47;11.33;;;8.33;;
16969;SDS011;8601;48.718;8.992;2022-11-27T07:16:15;12.17;;;9.57;;
16969;SDS011;8601;48.718;8.992;2022-11-27T07:18:43;13.37;;;10.80;;
16969;SDS011;8601;48.718;8.992;2022-11-27T07:21:11;12.13;;;10.70;;
16969;SDS011;8601;48.718;8.992;2022-11-27T07:23:38;15.80;;;11.83;;
16969;SDS011;8601;48.718;8.992;2022-11-27T07:26:08;10.40;;;9.37;;
16969;SDS011;8601;48.718;8.992;2022-11-27T07:28:36;10.77;;;8.77;;
16969;SDS011;8601;48.718;8.992;2022-11-27T07:31:03;11.67;;;9.93;;
16969;SDS011;8601;48.718;8.992;2022-11-27T07:33:31;11.93;;;9.53;;
16969;SDS011;8601;48.718;8.992;2022-11-27T07:35:58;11.60;;;9.57;;
16969;SDS011;8601;48.718;8.992;2022-11-27T07:38:26;10.40;;;8.60;;
16969;SDS011;8601;48.718;8.992;2022-11-27T07:40:53;12.10;;;7.40;;
16969;SDS011;8601;48.718;8.992;2022-11-27T07:43:21;7.83;;;6.57;;
16969;SDS011;8601;48.718;8.992;2022-11-27T07:45:48;10.07;;;6.97;;
16969;SDS011;8601;48.718;8.992;2022-11-27T07:48:15;9.70;;;6.43;;
16969;SDS011;8601;48.718;8.992;2022-11-27T07:50:42;9.73;;;6.50;;
16969;SDS011;8601;48.718;8.992;2022-11-27T07:53:09;8.90;;;6.37;;
16969;SDS011;8601;48.718;8.992;2022-11-27T07:55:43;8.03;;;6.87;;
16969;SDS011;8601;48.718;8.992;2022-11-27T07:58:10;12.87;;;7.80;;
16969;SDS011;8601;48.718;8.992;2022-11-27T08:00:39;11.33;;;8.17;;
16969;SDS011;8601;48.718;8.992;2022-11-27T08:03:06;11.93;;;9.50;;
16969;SDS011;8601;48.718;8.992;2022-11-27T08:05:33;16.23;;;11.47;;
16969;SDS011;8601;48.718;8.992;2022-11-27T08:08:01;15.97;;;11.67;;
16969;SDS011;8601;48.718;8.992;2022-11-27T08:10:29;16.30;;;11.90;;
16969;SDS011;8601;48.718;8.992;2022-11-27T08:12:55;15.40;;;12.70;;
16969;SDS011;8601;48.718;8.992;2022-11-27T08:15:22;13.27;;;10.20;;
16969;SDS011;8601;48.718;8.992;2022-11-27T08:17:51;14.13;;;10.67;;
16969;SDS011;8601;48.718;8.992;2022-11-27T08:20:18;13.83;;;11.63;;
16969;SDS011;8601;48.718;8.992;2022-11-27T08:22:45;16.30;;;11.07;;
16969;SDS011;8601;48.718;8.992;2022-11-27T08:25:12;14.30;;;10.63;;
16969;SDS011;8601;48.718;8.992;2022-11-27T08:27:39;11.87;;;10.03;;
16969;SDS011;8601;48.718;8.992;2022-11-27T08:30:06;15.37;;;11.83;;
16969;SDS011;8601;48.718;8.992;2022-11-27T08:32:36;15.07;;;11.40;;
16969;SDS011;8601;48.718;8.992;2022-11-27T08:38:09;9.67;;;8.30;;
16969;SDS011;8601;48.718;8.992;2022-11-27T08:40:36;9.07;;;6.60;;
16969;SDS011;8601;48.718;8.992;2022-11-27T08:43:03;6.40;;;5.80;;
16969;SDS011;8601;48.718;8.992;2022-11-27T08:45:30;7.03;;;6.10;;
16969;SDS011;8601;48.718;8.992;2022-11-27T08:47:57;7.13;;;6.47;;
16969;SDS011;8601;48.718;8.992;2022-11-27T08:50:24;8.43;;;6.93;;
16969;SDS011;8601;48.718;8.992;2022-11-27T08:52:51;7.27;;;6.00;;
16969;SDS011;8601;48.718;8.992;2022-11-27T08:55:20;7.00;;;6.17;;
16969;SDS011;8601;48.718;8.992;2022-11-27T08:57:47;7.00;;;5.90;;
16969;SDS011;8601;48.718;8.992;2022-11-27T09:00:14;7.80;;;6.27;;
16969;SDS011;8601;48.718;8.992;2022-11-27T09:02:41;7.37;;;6.23;;
16969;SDS011;8601;48.718;8.992;2022-11-27T09:05:09;7.13;;;6.20;;
16969;SDS011;8601;48.718;8.992;2022-11-27T09:07:36;7.37;;;5.33;;
16969;SDS011;8601;48.718;8.992;2022-11-27T09:10:05;10.13;;;6.40;;
16969;SDS011;8601;48.718;8.992;2022-11-27T09:12:34;6.60;;;5.80;;
16969;SDS011;8601;48.718;8.992;2022-11-27T09:15:03;7.07;;;5.53;;
16969;SDS011;8601;48.718;8.992;2022-11-27T09:17:31;7.57;;;6.10;;
16969;SDS011;8601;48.718;8.992;2022-11-27T09:19:57;7.57;;;5.30;;
16969;SDS011;8601;48.718;8.992;2022-11-27T09:22:24;7.53;;;6.20;;
16969;SDS011;8601;48.718;8.992;2022-11-27T09:24:51;7.80;;;6.57;;
16969;SDS011;8601;48.718;8.992;2022-11-27T09:27:25;8.47;;;6.33;;
16969;SDS011;8601;48.718;8.992;2022-11-27T09:29:53;6.07;;;5.40;;
16969;SDS011;8601;48.718;8.992;2022-11-27T09:32:20;7.57;;;6.10;;
16969;SDS011;8601;48.718;8.992;2022-11-27T09:34:48;7.80;;;6.07;;
16969;SDS011;8601;48.718;8.992;2022-11-27T09:37:16;7.83;;;5.40;;
16969;SDS011;8601;48.718;8.992;2022-11-27T09:39:43;6.60;;;5.83;;
16969;SDS011;8601;48.718;8.992;2022-11-27T09:42:11;6.87;;;5.30;;
16969;SDS011;8601;48.718;8.992;2022-11-27T09:44:48;6.43;;;5.50;;
16969;SDS011;8601;48.718;8.992;2022-11-27T09:47:25;6.27;;;5.67;;
16969;SDS011;8601;48.718;8.992;2022-11-27T09:49:56;8.00;;;5.83;;
16969;SDS011;8601;48.718;8.992;2022-11-27T09:52:27;8.13;;;5.67;;
16969;SDS011;8601;48.718;8.992;2022-11-27T09:55:04;6.53;;;4.70;;
16969;SDS011;8601;48.718;8.992;2022-11-27T09:57:40;5.43;;;4.70;;
16969;SDS011;8601;48.718;8.992;2022-11-27T10:00:12;5.53;;;4.87;;
16969;SDS011;8601;48.718;8.992;2022-11-27T10:02:43;6.70;;;4.37;;
16969;SDS011;8601;48.718;8.992;2022-11-27T10:05:12;5.70;;;4.70;;
16969;SDS011;8601;48.718;8.992;2022-11-27T10:07:46;6.37;;;4.30;;
16969;SDS011;8601;48.718;8.992;2022-11-27T10:10:37;5.47;;;4.10;;
16969;SDS011;8601;48.718;8.992;2022-11-27T10:13:13;5.20;;;4.40;;
16969;SDS011;8601;48.718;8.992;2022-11-27T10:15:47;5.60;;;4.90;;
16969;SDS011;8601;48.718;8.992;2022-11-27T10:18:23;5.57;;;4.23;;
16969;SDS011;8601;48.718;8.992;2022-11-27T10:20:57;6.00;;;4.30;;
16969;SDS011;8601;48.718;8.992;2022-11-27T10:23:32;4.10;;;3.70;;
16969;SDS011;8601;48.718;8.992;2022-11-27T10:26:12;5.50;;;4.37;;
16969;SDS011;8601;48.718;8.992;2022-11-27T10:28:44;5.53;;;3.93;;
16969;SDS011;8601;48.718;8.992;2022-11-27T10:31:28;4.23;;;3.70;;
16969;SDS011;8601;48.718;8.992;2022-11-27T10:34:03;4.03;;;3.63;;
16969;SDS011;8601;48.718;8.992;2022-11-27T10:36:40;3.80;;;3.10;;
16969;SDS011;8601;48.718;8.992;2022-11-27T10:39:12;5.77;;;4.27;;
16969;SDS011;8601;48.718;8.992;2022-11-27T10:41:44;4.87;;;3.70;;
16969;SDS011;8601;48.718;8.992;2022-11-27T10:44:22;3.97;;;3.43;;
16969;SDS011;8601;48.718;8.992;2022-11-27T10:46:54;5.73;;;3.03;;
16969;SDS011;8601;48.718;8.992;2022-11-27T10:49:26;4.40;;;3.27;;
16969;SDS011;8601;48.718;8.992;2022-11-27T10:51:52;4.83;;;3.20;;
16969;SDS011;8601;48.718;8.992;2022-11-27T10:54:22;4.07;;;3.40;;
16969;SDS011;8601;48.718;8.992;2022-11-27T10:56:59;4.17;;;3.20;;
16969;SDS011;8601;48.718;8.992;2022-11-27T10:59:38;3.63;;;2.90;;
16969;SDS011;8601;48.718;8.992;2022-11-27T11:02:23;3.37;;;2.87;;
16969;SDS011;8601;48.718;8.992;2022-11-27T11:04:53;11.23;;;4.17;;
16969;SDS011;8601;48.718;8.992;2022-11-27T11:07:23;3.27;;;2.57;;
16969;SDS011;8601;48.718;8.992;2022-11-27T11:09:52;3.77;;;2.97;;
16969;SDS011;8601;48.718;8.992;2022-11-27T11:12:20;2.90;;;2.70;;
16969;SDS011;8601;48.718;8.992;2022-11-27T11:14:49;3.93;;;2.80;;
16969;SDS011;8601;48.718;8.992;2022-11-27T11:17:16;3.70;;;2.73;;
16969;SDS011;8601;48.718;8.992;2022-11-27T11:19:49;3.20;;;2.90;;
16969;SDS011;8601;48.718;8.992;2022-11-27T11:22:17;3.73;;;3.33;;
16969;SDS011;8601;48.718;8.992;2022-11-27T11:24:45;3.50;;;3.20;;
16969;SDS011;8601;48.718;8.992;2022-11-27T11:27:14;2.50;;;2.30;;
16969;SDS011;8601;48.718;8.992;2022-11-27T11:29:45;2.57;;;2.37;;
16969;SDS011;8601;48.718;8.992;2022-11-27T11:32:15;4.70;;;2.20;;
16969;SDS011;8601;48.718;8.992;2022-11-27T11:34:48;3.63;;;2.80;;
16969;SDS011;8601;48.718;8.992;2022-11-27T11:39:56;3.80;;;3.07;;
16969;SDS011;8601;48.718;8.992;2022-11-27T11:42:25;3.50;;;3.20;;
16969;SDS011;8601;48.718;8.992;2022-11-27T11:44:54;4.67;;;2.77;;
16969;SDS011;8601;48.718;8.992;2022-11-27T11:47:27;5.03;;;3.20;;
16969;SDS011;8601;48.718;8.992;2022-11-27T11:49:54;5.07;;;3.33;;
16969;SDS011;8601;48.718;8.992;2022-11-27T11:52:34;3.97;;;3.30;;
16969;SDS011;8601;48.718;8.992;2022-11-27T11:55:11;4.50;;;3.27;;
16969;SDS011;8601;48.718;8.992;2022-11-27T11:57:53;4.07;;;3.13;;
16969;SDS011;8601;48.718;8.992;2022-11-27T12:00:36;5.07;;;3.77;;
16969;SDS011;8601;48.718;8.992;2022-11-27T12:03:21;4.87;;;3.70;;
16969;SDS011;8601;48.718;8.992;2022-11-27T12:06:05;6.03;;;4.07;;
16969;SDS011;8601;48.718;8.992;2022-11-27T12:08:59;8.70;;;6.77;;
16969;SDS011;8601;48.718;8.992;2022-11-27T12:11:37;6.37;;;3.63;;
16969;SDS011;8601;48.718;8.992;2022-11-27T12:14:15;3.40;;;3.10;;
16969;SDS011;8601;48.718;8.992;2022-11-27T12:16:54;3.23;;;2.90;;
16969;SDS011;8601;48.718;8.992;2022-11-27T12:19:51;3.90;;;3.03;;
16969;SDS011;8601;48.718;8.992;2022-11-27T12:25:32;3.87;;;3.50;;
16969;SDS011;8601;48.718;8.992;2022-11-27T12:28:06;3.37;;;2.97;;
16969;SDS011;8601;48.718;8.992;2022-11-27T12:30:41;3.07;;;2.70;;
16969;SDS011;8601;48.718;8.992;2022-11-27T12:36:07;4.70;;;3.10;;
16969;SDS011;8601;48.718;8.992;2022-11-27T12:38:45;3.57;;;2.67;;
16969;SDS011;8601;48.718;8.992;2022-11-27T12:41:26;4.73;;;3.17;;
16969;SDS011;8601;48.718;8.992;2022-11-27T12:44:22;3.20;;;3.00;;
16969;SDS011;8601;48.718;8.992;2022-11-27T12:46:57;3.70;;;3.10;;
16969;SDS011;8601;48.718;8.992;2022-11-27T12:49:29;4.40;;;3.27;;
16969;SDS011;8601;48.718;8.992;2022-11-27T12:52:12;5.17;;;2.90;;
16969;SDS011;8601;48.718;8.992;2022-11-27T12:54:43;4.10;;;2.73;;
16969;SDS011;8601;48.718;8.992;2022-11-27T12:57:17;3.73;;;3.37;;
16969;SDS011;8601;48.718;8.992;2022-11-27T12:59:51;3.93;;;2.90;;
16969;SDS011;8601;48.718;8.992;2022-11-27T13:02:30;4.03;;;2.53;;
16969;SDS011;8601;48.718;8.992;2022-11-27T13:05:01;2.93;;;2.47;;
16969;SDS011;8601;48.718;8.992;2022-11-27T13:07:33;3.07;;;2.70;;
16969;SDS011;8601;48.718;8.992;2022-11-27T13:10:10;2.67;;;2.47;;
16969;SDS011;8601;48.718;8.992;2022-11-27T13:12:47;3.37;;;2.57;;
16969;SDS011;8601;48.718;8.992;2022-11-27T13:15:22;3.03;;;2.73;;
16969;SDS011;8601;48.718;8.992;2022-11-27T13:17:55;5.77;;;2.77;;
16969;SDS011;8601;48.718;8.992;2022-11-27T13:20:29;4.00;;;2.87;;
16969;SDS011;8601;48.718;8.992;2022-11-27T13:23:00;3.17;;;2.50;;
16969;SDS011;8601;48.718;8.992;2022-11-27T13:25:28;3.53;;;3.10;;
16969;SDS011;8601;48.718;8.992;2022-11-27T13:27:58;4.20;;;2.60;;
16969;SDS011;8601;48.718;8.992;2022-11-27T13:30:29;3.47;;;3.17;;
16969;SDS011;8601;48.718;8.992;2022-11-27T13:32:59;4.27;;;3.43;;
16969;SDS011;8601;48.718;8.992;2022-11-27T13:35:35;5.13;;;2.80;;
16969;SDS011;8601;48.718;8.992;2022-11-27T13:38:06;5.13;;;4.23;;
16969;SDS011;8601;48.718;8.992;2022-11-27T13:40:36;3.60;;;2.70;;
16969;SDS011;8601;48.718;8.992;2022-11-27T13:43:15;3.77;;;2.80;;
16969;SDS011;8601;48.718;8.992;2022-11-27T13:45:47;4.87;;;2.80;;
16969;SDS011;8601;48.718;8.992;2022-11-27T13:48:24;3.20;;;2.90;;
16969;SDS011;8601;48.718;8.992;2022-11-27T13:50:56;8.27;;;6.03;;
16969;SDS011;8601;48.718;8.992;2022-11-27T13:53:31;4.33;;;2.83;;
16969;SDS011;8601;48.718;8.992;2022-11-27T13:55:59;3.93;;;3.03;;
16969;SDS011;8601;48.718;8.992;2022-11-27T13:58:28;4.57;;;3.10;;
16969;SDS011;8601;48.718;8.992;2022-11-27T14:00:57;3.33;;;3.00;;
16969;SDS011;8601;48.718;8.992;2022-11-27T14:03:25;3.80;;;3.50;;
16969;SDS011;8601;48.718;8.992;2022-11-27T14:05:55;3.60;;;3.27;;
16969;SDS011;8601;48.718;8.992;2022-11-27T14:08:23;4.03;;;3.63;;
16969;SDS011;8601;48.718;8.992;2022-11-27T14:10:52;4.53;;;3.43;;
16969;SDS011;8601;48.718;8.992;2022-11-27T14:13:36;3.73;;;3.33;;
16969;SDS011;8601;48.718;8.992;2022-11-27T14:16:08;4.33;;;3.60;;
16969;SDS011;8601;48.718;8.992;2022-11-27T14:18:49;4.93;;;3.93;;
16969;SDS011;8601;48.718;8.992;2022-11-27T14:21:23;5.10;;;3.63;;
16969;SDS011;8601;48.718;8.992;2022-11-27T14:23:52;4.10;;;3.30;;
16969;SDS011;8601;48.718;8.992;2022-11-27T14:26:20;3.93;;;3.27;;
16969;SDS011;8601;48.718;8.992;2022-11-27T14:28:51;4.93;;;3.20;;
16969;SDS011;8601;48.718;8.992;2022-11-27T14:31:21;4.20;;;3.50;;
16969;SDS011;8601;48.718;8.992;2022-11-27T14:33:52;3.27;;;2.97;;
16969;SDS011;8601;48.718;8.992;2022-11-27T14:36:21;3.20;;;2.90;;
16969;SDS011;8601;48.718;8.992;2022-11-27T14:38:48;3.70;;;3.40;;
16969;SDS011;8601;48.718;8.992;2022-11-27T14:41:16;3.50;;;2.77;;
16969;SDS011;8601;48.718;8.992;2022-11-27T14:43:44;3.53;;;3.23;;
16969;SDS011;8601;48.718;8.992;2022-11-27T14:46:14;4.63;;;3.10;;
16969;SDS011;8601;48.718;8.992;2022-11-27T14:48:43;3.73;;;3.40;;
16969;SDS011;8601;48.718;8.992;2022-11-27T14:51:13;7.23;;;5.87;;
16969;SDS011;8601;48.718;8.992;2022-11-27T14:53:42;5.60;;;4.07;;
16969;SDS011;8601;48.718;8.992;2022-11-27T14:56:10;3.87;;;3.43;;
16969;SDS011;8601;48.718;8.992;2022-11-27T14:58:39;3.93;;;3.50;;
16969;SDS011;8601;48.718;8.992;2022-11-27T15:01:18;3.63;;;3.33;;
16969;SDS011;8601;48.718;8.992;2022-11-27T15:03:53;3.93;;;3.53;;
16969;SDS011;8601;48.718;8.992;2022-11-27T15:06:21;4.70;;;3.50;;
16969;SDS011;8601;48.718;8.992;2022-11-27T15:08:49;3.77;;;3.43;;
16969;SDS011;8601;48.718;8.992;2022-11-27T15:11:17;3.47;;;3.17;;
16969;SDS011;8601;48.718;8.992;2022-11-27T15:13:48;6.43;;;4.83;;
16969;SDS011;8601;48.718;8.992;2022-11-27T15:16:20;6.07;;;5.47;;
16969;SDS011;8601;48.718;8.992;2022-11-27T15:18:49;6.67;;;5.93;;
16969;SDS011;8601;48.718;8.992;2022-11-27T15:21:19;6.20;;;5.60;;
16969;SDS011;8601;48.718;8.992;2022-11-27T15:23:49;8.00;;;7.20;;
16969;SDS011;8601;48.718;8.992;2022-11-27T15:26:26;7.67;;;6.90;;
16969;SDS011;8601;48.718;8.992;2022-11-27T15:28:57;8.83;;;7.23;;
16969;SDS011;8601;48.718;8.992;2022-11-27T15:31:27;6.13;;;5.07;;
16969;SDS011;8601;48.718;8.992;2022-11-27T15:33:57;5.73;;;4.93;;
16969;SDS011;8601;48.718;8.992;2022-11-27T15:36:31;6.60;;;5.20;;